CYLW/YLW METAR and TAF weather

Enter ICAO airport designator
Station Type Date Time Source
CYLW METAR 2022/01/18 08:00 UTC NOAA

CYLW 180800Z AUTO 15005KT 9SM BKN016 00/M01 A2992 RMK SLP150


Station Type Date Time Source
CYLW Decoded METAR 2022/01/18 08:00 UTC NOAA

Kelowna Airport, Canada (CYLW) 49-58N 119-23W 430M
Jan 18, 2022 - 03:00 AM EST / 2022.01.18 0800 UTC
Wind: from the SSE (150 degrees) at 6 MPH (5 KT):0
Visibility: 9 mile(s):0
Sky conditions: mostly cloudy
Temperature: 32 F (0 C)
Windchill: 26 F (-3 C):1
Dew Point: 30 F (-1 C)
Relative Humidity: 92%
Pressure (altimeter): 29.92 in. Hg (1013 hPa)
ob: CYLW 180800Z AUTO 15005KT 9SM BKN016 00/M01 A2992 RMK SLP150
cycle: 8

Station Type Date Time Source
CYLW TAF 2022/01/18 07:42 UTC NOAA

TAF CYLW 180640Z 1807/1819 17008KT P6SM SCT020 BKN100
TEMPO 1807/1810 BKN020
FM181000 VRB03KT P6SM SCT020 BKN050
TEMPO 1810/1813 5SM -SN BKN020
FM181300 01004KT P6SM SCT025 BKN060
RMK FCST BASED ON AUTO OBS. NXT FCST BY 181300Z

Example: see airport list